This is the latest recevied weather packets stored in our database for station/object KG5VSR. If no packets are shown the sender has not sent any weather packets the latest 10 day(s).
| Time | Temp. | Humidity | Pressure | Rain* | Wind** | Luminosity | Snow |
|---|---|---|---|---|---|---|---|
| 1787922150 | 27.78° C | 76% | 1018.1 hPa | 0 mm | - | 58 W/m² | - |
| 1787920346 | 25.56° C | 83% | 1017.8 hPa | 0 mm | - | 25 W/m² | - |
| 1787918545 | 25° C | 83% | 1017.4 hPa | 0 mm | - | 2 W/m² | - |
| 1787916742 | 25° C | 82% | 1017.1 hPa | 0 mm | - | 0 W/m² | - |
| 1787914947 | 25° C | 83% | 1017.3 hPa | 0 mm | - | 0 W/m² | - |
| 1787913140 | 25.56° C | 81% | 1016.9 hPa | 0 mm | - | 0 W/m² | - |
| 1787911340 | 25.56° C | 78% | 1016.8 hPa | 0 mm | - | 0 W/m² | - |
| 1787909535 | 26.11° C | 76% | 1016.9 hPa | 0 mm | - | 0 W/m² | - |
| 1787907732 | 26.67° C | 74% | 1016.9 hPa | 0 mm | - | 0 W/m² | - |
| 1787905932 | 27.22° C | 72% | 1016.7 hPa | 0 mm | - | 0 W/m² | - |
| 1787904126 | 27.78° C | 72% | 1016.8 hPa | 0 mm | - | 0 W/m² | - |
| 1787902323 | 27.22° C | 71% | 1016.9 hPa | 0 mm | - | 0 W/m² | - |
| 1787900526 | 28.33° C | 68% | 1017.1 hPa | 0 mm | - | 0 W/m² | - |
| 1787898717 | 28.89° C | 66% | 1016.7 hPa | 0 mm | - | 0 W/m² | - |
| 1787896916 | 29.44° C | 63% | 1017 hPa | 0 mm | - | 0 W/m² | - |
| 1787895116 | 30° C | 61% | 1016.5 hPa | 0 mm | - | 0 W/m² | - |
| 1787893312 | 30° C | 60% | 1016.4 hPa | 0 mm | - | 0 W/m² | - |
| 1787891511 | 30.56° C | 59% | 1016.1 hPa | 0 mm | - | 0 W/m² | - |
| 1787889707 | 31.11° C | 56% | 1016.2 hPa | 0 mm | - | 0 W/m² | - |
| 1787887905 | 31.67° C | 54% | 1015.6 hPa | 0 mm | - | 0 W/m² | - |
| 1787886104 | 32.22° C | 53% | 1015.4 hPa | 0 mm | - | 0 W/m² | - |
| 1787884304 | 32.78° C | 51% | 1015 hPa | 0 mm | - | 0 W/m² | - |
| 1787882499 | 33.33° C | 48% | 1014.6 hPa | 0 mm | - | 0 W/m² | - |
| 1787880698 | 33.89° C | 46% | 1013.9 hPa | 0 mm | - | 0 W/m² | - |
| 1787878897 | 35° C | 43% | 1013.6 hPa | 0 mm | - | 0 W/m² | - |
* Rain latest hour (hover to see other rain measurements)
** Current wind speed in m/s (hover to see current wind gust speed)